sensor_id;sensor_type;location;lat;lon;timestamp;temperature;humidity
1806;DHT22;901;48.142;11.516;2023-03-23T00:00:55;10.30;99.90
1806;DHT22;901;48.142;11.516;2023-03-23T00:03:22;10.20;99.90
1806;DHT22;901;48.142;11.516;2023-03-23T00:05:54;10.30;99.90
1806;DHT22;901;48.142;11.516;2023-03-23T00:08:25;10.30;99.90
1806;DHT22;901;48.142;11.516;2023-03-23T00:10:53;10.30;99.90
1806;DHT22;901;48.142;11.516;2023-03-23T00:13:22;10.30;99.90
1806;DHT22;901;48.142;11.516;2023-03-23T00:15:49;10.30;99.90
1806;DHT22;901;48.142;11.516;2023-03-23T00:18:17;10.40;99.90
1806;DHT22;901;48.142;11.516;2023-03-23T00:20:49;10.40;99.90
1806;DHT22;901;48.142;11.516;2023-03-23T00:23:16;10.40;99.90
1806;DHT22;901;48.142;11.516;2023-03-23T00:25:46;10.30;99.90
1806;DHT22;901;48.142;11.516;2023-03-23T00:28:15;10.30;99.90
1806;DHT22;901;48.142;11.516;2023-03-23T00:30:42;10.30;99.90
1806;DHT22;901;48.142;11.516;2023-03-23T00:33:11;10.40;99.90
1806;DHT22;901;48.142;11.516;2023-03-23T00:35:40;10.40;99.90
1806;DHT22;901;48.142;11.516;2023-03-23T00:38:07;10.40;99.90
1806;DHT22;901;48.142;11.516;2023-03-23T00:40:34;10.50;99.90
1806;DHT22;901;48.142;11.516;2023-03-23T00:43:02;10.30;99.90
1806;DHT22;901;48.142;11.516;2023-03-23T00:45:31;10.40;99.90
1806;DHT22;901;48.142;11.516;2023-03-23T00:48:00;10.40;99.90
1806;DHT22;901;48.142;11.516;2023-03-23T00:50:29;10.40;99.90
1806;DHT22;901;48.142;11.516;2023-03-23T00:52:56;10.40;99.90
1806;DHT22;901;48.142;11.516;2023-03-23T00:55:24;10.40;99.90
1806;DHT22;901;48.142;11.516;2023-03-23T00:57:51;10.30;99.90
1806;DHT22;901;48.142;11.516;2023-03-23T01:00:19;10.40;99.90
1806;DHT22;901;48.142;11.516;2023-03-23T01:02:48;10.40;99.90
1806;DHT22;901;48.142;11.516;2023-03-23T01:05:17;10.40;99.90
1806;DHT22;901;48.142;11.516;2023-03-23T01:07:44;10.40;99.90
1806;DHT22;901;48.142;11.516;2023-03-23T01:10:12;10.40;99.90
1806;DHT22;901;48.142;11.516;2023-03-23T01:12:42;10.40;99.90
1806;DHT22;901;48.142;11.516;2023-03-23T01:15:12;10.40;99.90
1806;DHT22;901;48.142;11.516;2023-03-23T01:17:39;10.30;99.90
1806;DHT22;901;48.142;11.516;2023-03-23T01:20:08;10.30;99.90
1806;DHT22;901;48.142;11.516;2023-03-23T01:22:36;10.30;99.90
1806;DHT22;901;48.142;11.516;2023-03-23T01:25:03;10.30;99.90
1806;DHT22;901;48.142;11.516;2023-03-23T01:27:30;10.30;99.90
1806;DHT22;901;48.142;11.516;2023-03-23T01:29:57;10.30;99.90
1806;DHT22;901;48.142;11.516;2023-03-23T01:32:24;10.30;99.90
1806;DHT22;901;48.142;11.516;2023-03-23T01:34:51;10.30;99.90
1806;DHT22;901;48.142;11.516;2023-03-23T01:37:19;10.30;99.90
1806;DHT22;901;48.142;11.516;2023-03-23T01:39:51;10.30;99.90
1806;DHT22;901;48.142;11.516;2023-03-23T01:42:20;10.30;99.90
1806;DHT22;901;48.142;11.516;2023-03-23T01:45:20;10.20;99.90
1806;DHT22;901;48.142;11.516;2023-03-23T01:47:50;10.20;99.90
1806;DHT22;901;48.142;11.516;2023-03-23T01:50:19;10.20;99.90
1806;DHT22;901;48.142;11.516;2023-03-23T01:52:51;10.20;99.90
1806;DHT22;901;48.142;11.516;2023-03-23T01:55:19;10.20;99.90
1806;DHT22;901;48.142;11.516;2023-03-23T01:57:47;10.20;99.90
1806;DHT22;901;48.142;11.516;2023-03-23T02:00:15;10.20;99.90
1806;DHT22;901;48.142;11.516;2023-03-23T02:02:44;10.20;99.90
1806;DHT22;901;48.142;11.516;2023-03-23T02:05:15;10.20;99.90
1806;DHT22;901;48.142;11.516;2023-03-23T02:07:45;10.20;99.90
1806;DHT22;901;48.142;11.516;2023-03-23T02:10:14;10.20;99.90
1806;DHT22;901;48.142;11.516;2023-03-23T02:12:41;10.20;99.90
1806;DHT22;901;48.142;11.516;2023-03-23T02:15:09;10.10;99.90
1806;DHT22;901;48.142;11.516;2023-03-23T02:17:41;10.10;99.90
1806;DHT22;901;48.142;11.516;2023-03-23T02:20:19;10.20;99.90
1806;DHT22;901;48.142;11.516;2023-03-23T02:23:10;10.10;99.90
1806;DHT22;901;48.142;11.516;2023-03-23T02:26:03;10.10;99.90
1806;DHT22;901;48.142;11.516;2023-03-23T02:28:50;10.10;99.90
1806;DHT22;901;48.142;11.516;2023-03-23T02:31:40;10.20;99.90
1806;DHT22;901;48.142;11.516;2023-03-23T02:34:12;10.20;99.90
1806;DHT22;901;48.142;11.516;2023-03-23T02:36:46;10.10;99.90
1806;DHT22;901;48.142;11.516;2023-03-23T02:39:18;10.10;99.90
1806;DHT22;901;48.142;11.516;2023-03-23T02:41:50;10.10;99.90
1806;DHT22;901;48.142;11.516;2023-03-23T02:44:19;10.10;99.90
1806;DHT22;901;48.142;11.516;2023-03-23T02:46:47;10.00;99.90
1806;DHT22;901;48.142;11.516;2023-03-23T02:49:17;10.10;99.90
1806;DHT22;901;48.142;11.516;2023-03-23T02:51:46;10.10;99.90
1806;DHT22;901;48.142;11.516;2023-03-23T02:54:15;10.10;99.90
1806;DHT22;901;48.142;11.516;2023-03-23T02:56:44;10.00;99.90
1806;DHT22;901;48.142;11.516;2023-03-23T02:59:11;10.10;99.90
1806;DHT22;901;48.142;11.516;2023-03-23T03:02:01;10.00;99.90
1806;DHT22;901;48.142;11.516;2023-03-23T03:04:31;10.00;99.90
1806;DHT22;901;48.142;11.516;2023-03-23T03:07:32;9.90;99.90
1806;DHT22;901;48.142;11.516;2023-03-23T03:10:06;9.90;99.90
1806;DHT22;901;48.142;11.516;2023-03-23T03:12:44;10.00;99.90
1806;DHT22;901;48.142;11.516;2023-03-23T03:15:21;9.90;99.90
1806;DHT22;901;48.142;11.516;2023-03-23T03:17:54;9.90;99.90
1806;DHT22;901;48.142;11.516;2023-03-23T03:20:25;9.90;99.90
1806;DHT22;901;48.142;11.516;2023-03-23T03:22:54;9.90;99.90
1806;DHT22;901;48.142;11.516;2023-03-23T03:25:22;10.00;99.90
1806;DHT22;901;48.142;11.516;2023-03-23T03:27:50;10.00;99.90
1806;DHT22;901;48.142;11.516;2023-03-23T03:30:19;10.00;99.90
1806;DHT22;901;48.142;11.516;2023-03-23T03:32:49;10.00;99.90
1806;DHT22;901;48.142;11.516;2023-03-23T03:35:19;10.00;99.90
1806;DHT22;901;48.142;11.516;2023-03-23T03:37:48;10.00;99.90
1806;DHT22;901;48.142;11.516;2023-03-23T03:40:19;10.00;99.90
1806;DHT22;901;48.142;11.516;2023-03-23T03:42:46;10.10;99.90
1806;DHT22;901;48.142;11.516;2023-03-23T03:45:14;10.10;99.90
1806;DHT22;901;48.142;11.516;2023-03-23T03:47:42;10.00;99.90
1806;DHT22;901;48.142;11.516;2023-03-23T03:50:09;10.00;99.90
1806;DHT22;901;48.142;11.516;2023-03-23T03:52:36;9.90;99.90
1806;DHT22;901;48.142;11.516;2023-03-23T03:55:06;9.90;99.90
1806;DHT22;901;48.142;11.516;2023-03-23T03:57:33;9.90;99.90
1806;DHT22;901;48.142;11.516;2023-03-23T04:00:00;10.00;99.90
1806;DHT22;901;48.142;11.516;2023-03-23T04:02:38;10.00;99.90
1806;DHT22;901;48.142;11.516;2023-03-23T04:05:06;10.00;99.90
1806;DHT22;901;48.142;11.516;2023-03-23T04:07:34;10.10;99.90
1806;DHT22;901;48.142;11.516;2023-03-23T04:10:06;10.00;99.90
1806;DHT22;901;48.142;11.516;2023-03-23T04:12:33;10.00;99.90
1806;DHT22;901;48.142;11.516;2023-03-23T04:15:00;10.10;99.90
1806;DHT22;901;48.142;11.516;2023-03-23T04:17:27;10.10;99.90
1806;DHT22;901;48.142;11.516;2023-03-23T04:19:54;10.20;99.90
1806;DHT22;901;48.142;11.516;2023-03-23T04:22:22;10.20;99.90
1806;DHT22;901;48.142;11.516;2023-03-23T04:24:56;10.20;99.90
1806;DHT22;901;48.142;11.516;2023-03-23T04:27:25;10.20;99.90
1806;DHT22;901;48.142;11.516;2023-03-23T04:29:53;10.20;99.90
1806;DHT22;901;48.142;11.516;2023-03-23T04:32:20;10.20;99.90
1806;DHT22;901;48.142;11.516;2023-03-23T04:34:47;10.20;99.90
1806;DHT22;901;48.142;11.516;2023-03-23T04:37:14;10.30;99.90
1806;DHT22;901;48.142;11.516;2023-03-23T04:39:41;10.20;99.90
1806;DHT22;901;48.142;11.516;2023-03-23T04:42:10;10.20;99.90
1806;DHT22;901;48.142;11.516;2023-03-23T04:44:40;10.20;99.90
1806;DHT22;901;48.142;11.516;2023-03-23T04:47:08;10.20;99.90
1806;DHT22;901;48.142;11.516;2023-03-23T04:49:35;10.10;99.90
1806;DHT22;901;48.142;11.516;2023-03-23T04:52:03;10.10;99.90
1806;DHT22;901;48.142;11.516;2023-03-23T04:54:29;10.10;99.90
1806;DHT22;901;48.142;11.516;2023-03-23T04:56:56;10.10;99.90
1806;DHT22;901;48.142;11.516;2023-03-23T04:59:24;10.20;99.90
1806;DHT22;901;48.142;11.516;2023-03-23T05:01:54;10.30;99.90
1806;DHT22;901;48.142;11.516;2023-03-23T05:04:21;10.30;99.90
1806;DHT22;901;48.142;11.516;2023-03-23T05:06:50;10.30;99.90
1806;DHT22;901;48.142;11.516;2023-03-23T05:09:18;10.30;99.90
1806;DHT22;901;48.142;11.516;2023-03-23T05:11:45;10.30;99.90
1806;DHT22;901;48.142;11.516;2023-03-23T05:14:12;10.20;99.90
1806;DHT22;901;48.142;11.516;2023-03-23T05:16:39;10.20;99.90
1806;DHT22;901;48.142;11.516;2023-03-23T05:19:07;10.30;99.90
1806;DHT22;901;48.142;11.516;2023-03-23T05:21:34;10.30;99.90
1806;DHT22;901;48.142;11.516;2023-03-23T05:24:02;10.40;99.90
1806;DHT22;901;48.142;11.516;2023-03-23T05:26:29;10.40;99.90
1806;DHT22;901;48.142;11.516;2023-03-23T05:28:56;10.40;99.90
1806;DHT22;901;48.142;11.516;2023-03-23T05:31:24;10.50;99.90
1806;DHT22;901;48.142;11.516;2023-03-23T05:33:52;10.50;99.90
1806;DHT22;901;48.142;11.516;2023-03-23T05:36:20;10.50;99.90
1806;DHT22;901;48.142;11.516;2023-03-23T05:38:48;10.50;99.90
1806;DHT22;901;48.142;11.516;2023-03-23T05:41:15;10.50;99.90
1806;DHT22;901;48.142;11.516;2023-03-23T05:43:42;10.60;99.90
1806;DHT22;901;48.142;11.516;2023-03-23T05:46:09;10.60;99.90
1806;DHT22;901;48.142;11.516;2023-03-23T05:48:35;10.60;99.90
1806;DHT22;901;48.142;11.516;2023-03-23T05:51:04;10.60;99.90
1806;DHT22;901;48.142;11.516;2023-03-23T05:53:32;10.70;99.90
1806;DHT22;901;48.142;11.516;2023-03-23T05:55:59;10.70;99.90
1806;DHT22;901;48.142;11.516;2023-03-23T05:58:27;10.70;99.90
1806;DHT22;901;48.142;11.516;2023-03-23T06:00:54;10.90;99.90
1806;DHT22;901;48.142;11.516;2023-03-23T06:03:20;10.90;99.90
1806;DHT22;901;48.142;11.516;2023-03-23T06:05:48;11.00;99.90
1806;DHT22;901;48.142;11.516;2023-03-23T06:08:15;11.00;99.90
1806;DHT22;901;48.142;11.516;2023-03-23T06:10:43;11.10;99.90
1806;DHT22;901;48.142;11.516;2023-03-23T06:13:10;11.10;99.90
1806;DHT22;901;48.142;11.516;2023-03-23T06:15:37;11.20;99.90
1806;DHT22;901;48.142;11.516;2023-03-23T06:18:04;11.20;99.90
1806;DHT22;901;48.142;11.516;2023-03-23T06:20:31;11.30;99.90
1806;DHT22;901;48.142;11.516;2023-03-23T06:22:58;11.30;99.90
1806;DHT22;901;48.142;11.516;2023-03-23T06:25:26;11.30;99.90
1806;DHT22;901;48.142;11.516;2023-03-23T06:27:54;11.40;99.90
1806;DHT22;901;48.142;11.516;2023-03-23T06:30:21;11.50;99.90
1806;DHT22;901;48.142;11.516;2023-03-23T06:32:48;11.60;99.90
1806;DHT22;901;48.142;11.516;2023-03-23T06:35:16;11.60;99.90
1806;DHT22;901;48.142;11.516;2023-03-23T06:37:42;11.70;99.90
1806;DHT22;901;48.142;11.516;2023-03-23T06:40:09;11.60;99.90
1806;DHT22;901;48.142;11.516;2023-03-23T06:42:37;11.50;99.90
1806;DHT22;901;48.142;11.516;2023-03-23T06:45:06;11.60;99.90
1806;DHT22;901;48.142;11.516;2023-03-23T06:47:33;11.80;99.90
1806;DHT22;901;48.142;11.516;2023-03-23T06:50:00;11.90;99.90
1806;DHT22;901;48.142;11.516;2023-03-23T06:52:27;12.00;99.90
1806;DHT22;901;48.142;11.516;2023-03-23T06:54:54;12.10;99.90
1806;DHT22;901;48.142;11.516;2023-03-23T06:57:21;12.20;99.90
1806;DHT22;901;48.142;11.516;2023-03-23T06:59:48;12.40;99.90
1806;DHT22;901;48.142;11.516;2023-03-23T07:02:16;12.50;99.90
1806;DHT22;901;48.142;11.516;2023-03-23T07:04:43;12.70;99.90
1806;DHT22;901;48.142;11.516;2023-03-23T07:07:11;12.70;99.90
1806;DHT22;901;48.142;11.516;2023-03-23T07:09:40;12.90;99.90
1806;DHT22;901;48.142;11.516;2023-03-23T07:12:07;13.20;99.90
1806;DHT22;901;48.142;11.516;2023-03-23T07:14:35;13.40;99.90
1806;DHT22;901;48.142;11.516;2023-03-23T07:17:03;13.60;99.90
1806;DHT22;901;48.142;11.516;2023-03-23T07:19:31;13.90;99.90
1806;DHT22;901;48.142;11.516;2023-03-23T07:21:58;14.20;99.90
1806;DHT22;901;48.142;11.516;2023-03-23T07:24:25;14.50;99.90
1806;DHT22;901;48.142;11.516;2023-03-23T07:26:52;14.50;99.90
1806;DHT22;901;48.142;11.516;2023-03-23T07:29:19;14.70;99.90
1806;DHT22;901;48.142;11.516;2023-03-23T07:31:45;14.90;99.90
1806;DHT22;901;48.142;11.516;2023-03-23T07:34:12;15.10;99.90
1806;DHT22;901;48.142;11.516;2023-03-23T07:36:40;15.30;99.90
1806;DHT22;901;48.142;11.516;2023-03-23T07:39:07;16.90;99.90
1806;DHT22;901;48.142;11.516;2023-03-23T07:41:34;15.80;99.90
1806;DHT22;901;48.142;11.516;2023-03-23T07:44:01;16.10;99.90
1806;DHT22;901;48.142;11.516;2023-03-23T07:46:28;16.30;99.90
1806;DHT22;901;48.142;11.516;2023-03-23T07:48:55;16.30;99.90
1806;DHT22;901;48.142;11.516;2023-03-23T07:51:22;16.90;99.90
1806;DHT22;901;48.142;11.516;2023-03-23T07:53:51;16.40;99.90
1806;DHT22;901;48.142;11.516;2023-03-23T07:56:18;16.60;99.90
1806;DHT22;901;48.142;11.516;2023-03-23T07:58:46;16.60;99.90
1806;DHT22;901;48.142;11.516;2023-03-23T08:01:13;16.80;99.90
1806;DHT22;901;48.142;11.516;2023-03-23T08:03:40;16.80;99.90
1806;DHT22;901;48.142;11.516;2023-03-23T08:06:08;16.80;99.90
1806;DHT22;901;48.142;11.516;2023-03-23T08:08:35;16.80;99.90
1806;DHT22;901;48.142;11.516;2023-03-23T08:11:04;16.80;99.90
1806;DHT22;901;48.142;11.516;2023-03-23T08:13:31;16.90;99.90
1806;DHT22;901;48.142;11.516;2023-03-23T08:15:58;16.90;99.90
1806;DHT22;901;48.142;11.516;2023-03-23T08:18:25;16.90;99.90
1806;DHT22;901;48.142;11.516;2023-03-23T08:20:52;16.90;99.90
1806;DHT22;901;48.142;11.516;2023-03-23T08:23:19;17.00;99.90
1806;DHT22;901;48.142;11.516;2023-03-23T08:25:47;17.20;99.90
1806;DHT22;901;48.142;11.516;2023-03-23T08:28:15;17.30;99.90
1806;DHT22;901;48.142;11.516;2023-03-23T08:30:42;17.30;99.90
1806;DHT22;901;48.142;11.516;2023-03-23T08:33:09;17.10;99.90
1806;DHT22;901;48.142;11.516;2023-03-23T08:35:37;17.10;99.90
1806;DHT22;901;48.142;11.516;2023-03-23T08:38:04;17.30;99.90
1806;DHT22;901;48.142;11.516;2023-03-23T08:40:31;17.20;99.90
1806;DHT22;901;48.142;11.516;2023-03-23T08:42:58;17.40;99.90
1806;DHT22;901;48.142;11.516;2023-03-23T08:45:27;17.70;99.90
1806;DHT22;901;48.142;11.516;2023-03-23T08:47:54;17.60;99.90
1806;DHT22;901;48.142;11.516;2023-03-23T08:50:24;17.90;99.90
1806;DHT22;901;48.142;11.516;2023-03-23T08:52:52;18.10;99.90
1806;DHT22;901;48.142;11.516;2023-03-23T08:55:20;18.30;99.90
1806;DHT22;901;48.142;11.516;2023-03-23T08:57:47;18.40;99.90
1806;DHT22;901;48.142;11.516;2023-03-23T09:00:17;18.50;99.90
1806;DHT22;901;48.142;11.516;2023-03-23T09:02:47;18.60;99.90
1806;DHT22;901;48.142;11.516;2023-03-23T09:05:16;18.80;99.90
1806;DHT22;901;48.142;11.516;2023-03-23T09:07:46;19.00;99.90
1806;DHT22;901;48.142;11.516;2023-03-23T09:10:14;19.20;99.90
1806;DHT22;901;48.142;11.516;2023-03-23T09:12:42;19.40;99.90
1806;DHT22;901;48.142;11.516;2023-03-23T09:15:12;19.60;99.90
1806;DHT22;901;48.142;11.516;2023-03-23T09:17:41;19.90;99.90
1806;DHT22;901;48.142;11.516;2023-03-23T09:20:12;20.10;99.90
1806;DHT22;901;48.142;11.516;2023-03-23T09:22:39;20.20;99.90
1806;DHT22;901;48.142;11.516;2023-03-23T09:25:08;20.40;99.90
1806;DHT22;901;48.142;11.516;2023-03-23T09:27:35;20.60;99.90
1806;DHT22;901;48.142;11.516;2023-03-23T09:30:05;20.80;99.90
1806;DHT22;901;48.142;11.516;2023-03-23T09:32:32;20.80;99.90
1806;DHT22;901;48.142;11.516;2023-03-23T09:35:00;21.00;99.90
1806;DHT22;901;48.142;11.516;2023-03-23T09:37:28;21.10;99.90
1806;DHT22;901;48.142;11.516;2023-03-23T09:39:55;21.00;99.90
1806;DHT22;901;48.142;11.516;2023-03-23T09:42:31;21.00;99.90
1806;DHT22;901;48.142;11.516;2023-03-23T09:45:10;20.90;99.90
1806;DHT22;901;48.142;11.516;2023-03-23T09:47:43;20.80;99.90
1806;DHT22;901;48.142;11.516;2023-03-23T09:50:15;20.70;99.90
1806;DHT22;901;48.142;11.516;2023-03-23T09:52:48;20.70;99.90
1806;DHT22;901;48.142;11.516;2023-03-23T09:55:18;20.70;99.90
1806;DHT22;901;48.142;11.516;2023-03-23T09:57:49;20.80;99.90
1806;DHT22;901;48.142;11.516;2023-03-23T10:00:20;20.90;99.90
1806;DHT22;901;48.142;11.516;2023-03-23T10:02:55;20.90;99.90
1806;DHT22;901;48.142;11.516;2023-03-23T10:05:29;20.90;99.90
1806;DHT22;901;48.142;11.516;2023-03-23T10:07:59;21.00;99.90
1806;DHT22;901;48.142;11.516;2023-03-23T10:10:35;21.00;99.90
1806;DHT22;901;48.142;11.516;2023-03-23T10:13:06;21.00;99.90
1806;DHT22;901;48.142;11.516;2023-03-23T10:15:38;21.00;99.90
1806;DHT22;901;48.142;11.516;2023-03-23T10:18:12;21.00;99.90
1806;DHT22;901;48.142;11.516;2023-03-23T10:20:44;21.00;99.90
1806;DHT22;901;48.142;11.516;2023-03-23T10:23:33;21.00;99.90
1806;DHT22;901;48.142;11.516;2023-03-23T10:26:07;20.90;99.90
1806;DHT22;901;48.142;11.516;2023-03-23T10:28:37;21.00;99.90
1806;DHT22;901;48.142;11.516;2023-03-23T10:31:10;21.10;99.90
1806;DHT22;901;48.142;11.516;2023-03-23T10:33:40;21.00;99.30
1806;DHT22;901;48.142;11.516;2023-03-23T10:36:12;20.90;99.30
1806;DHT22;901;48.142;11.516;2023-03-23T10:38:44;20.70;99.00
1806;DHT22;901;48.142;11.516;2023-03-23T10:41:14;20.50;98.20
1806;DHT22;901;48.142;11.516;2023-03-23T10:43:42;20.40;98.30
1806;DHT22;901;48.142;11.516;2023-03-23T10:46:18;20.40;98.10
1806;DHT22;901;48.142;11.516;2023-03-23T10:48:48;20.30;97.80
1806;DHT22;901;48.142;11.516;2023-03-23T10:51:19;20.40;98.00
1806;DHT22;901;48.142;11.516;2023-03-23T10:53:55;20.50;97.90
1806;DHT22;901;48.142;11.516;2023-03-23T10:56:24;20.50;97.80
1806;DHT22;901;48.142;11.516;2023-03-23T10:58:53;20.50;97.80
1806;DHT22;901;48.142;11.516;2023-03-23T11:01:29;20.40;97.80
1806;DHT22;901;48.142;11.516;2023-03-23T11:03:56;20.50;97.80
1806;DHT22;901;48.142;11.516;2023-03-23T11:06:27;20.50;97.90
1806;DHT22;901;48.142;11.516;2023-03-23T11:08:58;20.60;97.70
1806;DHT22;901;48.142;11.516;2023-03-23T11:11:29;20.70;97.80
1806;DHT22;901;48.142;11.516;2023-03-23T11:13:58;20.80;97.80
1806;DHT22;901;48.142;11.516;2023-03-23T11:16:28;20.90;97.80
1806;DHT22;901;48.142;11.516;2023-03-23T11:18:57;21.00;97.70
1806;DHT22;901;48.142;11.516;2023-03-23T11:21:25;20.90;97.80
1806;DHT22;901;48.142;11.516;2023-03-23T11:23:54;20.80;98.00
1806;DHT22;901;48.142;11.516;2023-03-23T11:26:26;20.70;98.00
1806;DHT22;901;48.142;11.516;2023-03-23T11:28:57;20.70;97.90
1806;DHT22;901;48.142;11.516;2023-03-23T11:31:28;20.70;97.70
1806;DHT22;901;48.142;11.516;2023-03-23T11:34:01;20.80;99.90
1806;DHT22;901;48.142;11.516;2023-03-23T11:36:31;21.00;99.90
1806;DHT22;901;48.142;11.516;2023-03-23T11:38:59;21.10;99.90
1806;DHT22;901;48.142;11.516;2023-03-23T11:41:33;21.20;99.20
1806;DHT22;901;48.142;11.516;2023-03-23T11:44:08;21.20;99.90
1806;DHT22;901;48.142;11.516;2023-03-23T11:49:12;21.30;99.90
1806;DHT22;901;48.142;11.516;2023-03-23T11:51:45;22.40;99.90
1806;DHT22;901;48.142;11.516;2023-03-23T11:54:17;21.80;99.90
1806;DHT22;901;48.142;11.516;2023-03-23T11:56:47;21.90;99.90
1806;DHT22;901;48.142;11.516;2023-03-23T11:59:16;22.00;99.90
1806;DHT22;901;48.142;11.516;2023-03-23T12:01:53;22.00;99.90
1806;DHT22;901;48.142;11.516;2023-03-23T12:04:49;22.10;99.90
1806;DHT22;901;48.142;11.516;2023-03-23T12:07:37;22.20;99.90
1806;DHT22;901;48.142;11.516;2023-03-23T12:10:15;22.40;99.90
1806;DHT22;901;48.142;11.516;2023-03-23T12:12:51;22.90;99.90
1806;DHT22;901;48.142;11.516;2023-03-23T12:15:24;23.00;99.90
1806;DHT22;901;48.142;11.516;2023-03-23T12:18:00;23.10;99.90
1806;DHT22;901;48.142;11.516;2023-03-23T12:20:39;22.90;99.90
1806;DHT22;901;48.142;11.516;2023-03-23T12:23:14;22.90;99.90
1806;DHT22;901;48.142;11.516;2023-03-23T12:28:36;22.90;96.90
1806;DHT22;901;48.142;11.516;2023-03-23T12:33:43;22.60;98.40
1806;DHT22;901;48.142;11.516;2023-03-23T12:36:21;22.40;99.90
1806;DHT22;901;48.142;11.516;2023-03-23T12:41:48;21.90;99.40
1806;DHT22;901;48.142;11.516;2023-03-23T12:44:23;21.50;99.90
1806;DHT22;901;48.142;11.516;2023-03-23T12:47:02;21.80;99.50
1806;DHT22;901;48.142;11.516;2023-03-23T12:49:35;21.70;99.90
1806;DHT22;901;48.142;11.516;2023-03-23T12:52:10;21.70;99.90
1806;DHT22;901;48.142;11.516;2023-03-23T12:54:42;21.60;97.40
1806;DHT22;901;48.142;11.516;2023-03-23T12:57:22;21.60;98.80
1806;DHT22;901;48.142;11.516;2023-03-23T12:59:56;21.50;96.20
1806;DHT22;901;48.142;11.516;2023-03-23T13:02:27;21.30;98.50
1806;DHT22;901;48.142;11.516;2023-03-23T13:07:29;20.90;99.50
1806;DHT22;901;48.142;11.516;2023-03-23T13:10:02;20.90;96.40
1806;DHT22;901;48.142;11.516;2023-03-23T13:12:30;20.70;96.90
1806;DHT22;901;48.142;11.516;2023-03-23T13:15:08;20.80;97.10
1806;DHT22;901;48.142;11.516;2023-03-23T13:17:46;20.40;99.50
1806;DHT22;901;48.142;11.516;2023-03-23T13:20:31;20.30;99.90
1806;DHT22;901;48.142;11.516;2023-03-23T13:23:04;20.10;99.90
1806;DHT22;901;48.142;11.516;2023-03-23T13:25:46;20.10;99.90
1806;DHT22;901;48.142;11.516;2023-03-23T13:28:16;20.10;99.90
1806;DHT22;901;48.142;11.516;2023-03-23T13:30:59;20.10;97.10
1806;DHT22;901;48.142;11.516;2023-03-23T13:33:29;20.40;99.90
1806;DHT22;901;48.142;11.516;2023-03-23T13:36:01;20.40;99.20
1806;DHT22;901;48.142;11.516;2023-03-23T13:38:30;20.60;99.20
1806;DHT22;901;48.142;11.516;2023-03-23T13:40:58;20.70;99.90
1806;DHT22;901;48.142;11.516;2023-03-23T13:43:34;20.50;99.90
1806;DHT22;901;48.142;11.516;2023-03-23T13:46:12;20.30;99.90
1806;DHT22;901;48.142;11.516;2023-03-23T13:48:46;20.30;99.90
1806;DHT22;901;48.142;11.516;2023-03-23T13:51:33;20.50;99.90
1806;DHT22;901;48.142;11.516;2023-03-23T13:54:24;20.50;99.90
1806;DHT22;901;48.142;11.516;2023-03-23T13:56:54;20.10;96.70
1806;DHT22;901;48.142;11.516;2023-03-23T13:59:34;20.00;97.70
1806;DHT22;901;48.142;11.516;2023-03-23T14:05:19;19.50;98.00
1806;DHT22;901;48.142;11.516;2023-03-23T14:07:54;19.60;98.60
1806;DHT22;901;48.142;11.516;2023-03-23T14:10:22;19.50;98.80
1806;DHT22;901;48.142;11.516;2023-03-23T14:12:52;19.60;98.00
1806;DHT22;901;48.142;11.516;2023-03-23T14:15:19;19.40;98.60
1806;DHT22;901;48.142;11.516;2023-03-23T14:17:47;19.40;99.00
1806;DHT22;901;48.142;11.516;2023-03-23T14:20:23;19.30;98.80
1806;DHT22;901;48.142;11.516;2023-03-23T14:22:54;19.20;99.10
1806;DHT22;901;48.142;11.516;2023-03-23T14:25:25;19.10;99.80
1806;DHT22;901;48.142;11.516;2023-03-23T14:27:53;19.20;99.90
1806;DHT22;901;48.142;11.516;2023-03-23T14:30:22;19.30;98.60
1806;DHT22;901;48.142;11.516;2023-03-23T14:32:51;19.30;98.50
1806;DHT22;901;48.142;11.516;2023-03-23T14:35:23;19.20;98.70
1806;DHT22;901;48.142;11.516;2023-03-23T14:37:52;19.10;99.00
1806;DHT22;901;48.142;11.516;2023-03-23T14:40:19;19.10;99.00
1806;DHT22;901;48.142;11.516;2023-03-23T14:42:46;18.90;99.20
1806;DHT22;901;48.142;11.516;2023-03-23T14:45:16;19.00;99.30
1806;DHT22;901;48.142;11.516;2023-03-23T14:47:45;19.00;99.40
1806;DHT22;901;48.142;11.516;2023-03-23T14:50:25;18.90;99.70
1806;DHT22;901;48.142;11.516;2023-03-23T14:52:57;18.70;99.90
1806;DHT22;901;48.142;11.516;2023-03-23T14:55:24;18.70;99.90
1806;DHT22;901;48.142;11.516;2023-03-23T14:57:54;18.70;99.90
1806;DHT22;901;48.142;11.516;2023-03-23T15:00:23;18.70;99.90
1806;DHT22;901;48.142;11.516;2023-03-23T15:02:52;18.80;99.90
1806;DHT22;901;48.142;11.516;2023-03-23T15:05:25;18.90;99.90
1806;DHT22;901;48.142;11.516;2023-03-23T15:07:54;18.80;99.90
1806;DHT22;901;48.142;11.516;2023-03-23T15:10:23;18.70;99.90
1806;DHT22;901;48.142;11.516;2023-03-23T15:12:51;18.80;99.90
1806;DHT22;901;48.142;11.516;2023-03-23T15:15:26;18.90;99.90
1806;DHT22;901;48.142;11.516;2023-03-23T15:17:54;18.70;99.90
1806;DHT22;901;48.142;11.516;2023-03-23T15:20:25;19.00;99.90
1806;DHT22;901;48.142;11.516;2023-03-23T15:22:53;19.10;99.90
1806;DHT22;901;48.142;11.516;2023-03-23T15:25:21;19.00;99.90
1806;DHT22;901;48.142;11.516;2023-03-23T15:27:51;19.00;99.90
1806;DHT22;901;48.142;11.516;2023-03-23T15:30:31;18.70;99.90
1806;DHT22;901;48.142;11.516;2023-03-23T15:33:04;18.60;99.90
1806;DHT22;901;48.142;11.516;2023-03-23T15:35:36;18.70;99.90
1806;DHT22;901;48.142;11.516;2023-03-23T15:38:05;18.70;99.90
1806;DHT22;901;48.142;11.516;2023-03-23T15:40:34;18.70;99.90
1806;DHT22;901;48.142;11.516;2023-03-23T15:43:07;18.40;99.90
1806;DHT22;901;48.142;11.516;2023-03-23T15:45:34;18.50;99.90
1806;DHT22;901;48.142;11.516;2023-03-23T15:48:11;18.30;99.90
1806;DHT22;901;48.142;11.516;2023-03-23T15:50:40;18.20;99.90
1806;DHT22;901;48.142;11.516;2023-03-23T15:53:19;18.20;99.90
1806;DHT22;901;48.142;11.516;2023-03-23T15:55:47;18.20;99.90
1806;DHT22;901;48.142;11.516;2023-03-23T15:58:14;18.30;99.90
1806;DHT22;901;48.142;11.516;2023-03-23T16:00:42;18.20;99.90
1806;DHT22;901;48.142;11.516;2023-03-23T16:03:14;18.10;99.90
1806;DHT22;901;48.142;11.516;2023-03-23T16:05:44;18.10;99.90
1806;DHT22;901;48.142;11.516;2023-03-23T16:08:11;17.90;99.90
1806;DHT22;901;48.142;11.516;2023-03-23T16:10:39;17.80;99.90
1806;DHT22;901;48.142;11.516;2023-03-23T16:13:06;17.60;99.90
1806;DHT22;901;48.142;11.516;2023-03-23T16:15:32;17.40;99.90
1806;DHT22;901;48.142;11.516;2023-03-23T16:17:59;17.30;99.90
1806;DHT22;901;48.142;11.516;2023-03-23T16:20:28;17.30;99.90
1806;DHT22;901;48.142;11.516;2023-03-23T16:22:56;17.20;99.90
1806;DHT22;901;48.142;11.516;2023-03-23T16:25:23;17.50;99.90
1806;DHT22;901;48.142;11.516;2023-03-23T16:27:50;17.20;99.90
1806;DHT22;901;48.142;11.516;2023-03-23T16:30:21;17.30;99.90
1806;DHT22;901;48.142;11.516;2023-03-23T16:32:48;17.20;99.90
1806;DHT22;901;48.142;11.516;2023-03-23T16:35:15;17.40;99.90
1806;DHT22;901;48.142;11.516;2023-03-23T16:37:46;17.40;99.90